Time;durP1;ratioP1;P1;durP2;ratioP2;P2;SDS_P1;SDS_P2;PMS_P1;PMS_P2;Temp;Humidity;BMP_temperature;BMP_pressure;BME280_temperature;BME280_humidity;BME280_pressure;Samples;Min_cycle;Max_cycle;Signal;HPM_P1;HPM_P2
2021/09/10 00:01:22;;;;;;;12.57;7.75;;;;;;;21.21;60.48;101541.28;144994;584;5002;-78
2021/09/10 00:03:48;;;;;;;16.58;7.62;;;;;;;21.21;60.05;101538.66;144994;619;5002;-78
2021/09/10 00:06:15;;;;;;;15.02;8.48;;;;;;;21.21;60.17;101538.66;144994;628;5002;-79
2021/09/10 00:08:41;;;;;;;14.98;8.65;;;;;;;21.24;60.31;101545.69;144994;585;5002;-78
2021/09/10 00:11:19;;;;;;;19.45;8.80;;;;;;;21.27;60.43;101549.22;144993;582;5002;-76
2021/09/10 00:14:00;;;;;;;12.20;7.32;;;;;;;21.37;60.50;101545.66;144994;588;5002;-77
2021/09/10 00:16:29;;;;;;;13.70;8.48;;;;;;;21.48;60.34;101553.59;144994;586;5002;-78
2021/09/10 00:18:55;;;;;;;16.73;6.68;;;;;;;21.53;59.92;101554.47;144994;584;5002;-79
2021/09/10 00:21:34;;;;;;;12.45;6.97;;;;;;;21.56;59.86;101556.22;144994;603;5002;-79
2021/09/10 00:24:04;;;;;;;11.52;7.10;;;;;;;21.62;59.80;101545.66;144994;606;5002;-79
2021/09/10 00:26:30;;;;;;;11.23;6.03;;;;;;;21.65;59.81;101557.97;144994;633;5002;-78
2021/09/10 00:28:57;;;;;;;9.57;6.18;;;;;;;21.63;59.47;101544.75;144994;564;5002;-79
2021/09/10 00:31:23;;;;;;;12.20;6.43;;;;;;;21.62;59.62;101558.87;144994;599;5002;-78
2021/09/10 00:33:49;;;;;;;8.57;5.53;;;;;;;21.58;59.52;101556.22;144994;577;5002;-79
2021/09/10 00:36:16;;;;;;;8.45;5.25;;;;;;;21.51;59.50;101548.31;144994;579;5002;-77
2021/09/10 00:38:43;;;;;;;5.30;4.80;;;;;;;21.47;59.91;101551.81;144994;646;5002;-77
2021/09/10 00:41:09;;;;;;;10.35;4.80;;;;;;;21.43;59.70;101538.59;144994;584;5002;-76
2021/09/10 00:43:36;;;;;;;7.15;4.90;;;;;;;21.38;59.85;101544.78;144994;598;5002;-77
2021/09/10 00:46:03;;;;;;;6.62;4.60;;;;;;;21.36;59.98;101546.56;144994;570;5002;-78
2021/09/10 00:48:29;;;;;;;5.97;4.55;;;;;;;21.35;60.24;101542.16;144994;566;5002;-77
2021/09/10 00:50:56;;;;;;;8.05;4.87;;;;;;;21.31;60.08;101535.09;144994;589;5002;-79
2021/09/10 00:53:22;;;;;;;6.15;4.07;;;;;;;21.32;60.37;101536.00;144994;595;5002;-78
2021/09/10 00:55:49;;;;;;;6.20;4.20;;;;;;;21.34;60.27;101537.75;144994;619;5002;-77
2021/09/10 00:58:16;;;;;;;6.15;3.22;;;;;;;21.31;60.26;101535.09;144994;563;5002;-78
2021/09/10 01:00:42;;;;;;;5.12;3.17;;;;;;;21.30;60.62;101543.94;144994;601;5002;-79
2021/09/10 01:03:10;;;;;;;4.05;2.85;;;;;;;21.31;60.53;101537.75;144994;598;5002;-79
2021/09/10 01:05:37;;;;;;;3.85;3.12;;;;;;;21.29;60.48;101536.88;144994;572;5002;-79
2021/09/10 01:08:06;;;;;;;4.25;2.58;;;;;;;21.22;60.55;101536.88;144994;614;5002;-79
2021/09/10 01:10:34;;;;;;;4.07;2.40;;;;;;;21.20;60.79;101537.78;144994;585;5002;-79
2021/09/10 01:13:02;;;;;;;3.53;2.70;;;;;;;21.17;60.89;101535.16;144994;613;5002;-79
2021/09/10 01:15:28;;;;;;;3.75;2.30;;;;;;;21.18;60.80;101539.53;144994;575;5002;-78
2021/09/10 01:17:55;;;;;;;3.40;2.08;;;;;;;21.18;60.75;101541.31;144994;627;5002;-79
2021/09/10 01:20:21;;;;;;;4.37;2.47;;;;;;;21.18;60.75;101539.53;144994;592;5002;-79
2021/09/10 01:22:48;;;;;;;2.53;2.33;;;;;;;21.15;60.62;101536.88;144994;569;5002;-78
2021/09/10 01:25:19;;;;;;;4.60;2.53;;;;;;;21.17;60.56;101543.06;144994;577;5002;-78
2021/09/10 01:27:52;;;;;;;4.25;2.08;;;;;;;21.19;60.76;101537.78;144994;569;5002;-80
2021/09/10 01:30:21;;;;;;;2.75;2.08;;;;;;;21.24;60.62;101538.66;144994;598;5002;-78
2021/09/10 01:32:49;;;;;;;2.78;2.15;;;;;;;21.26;60.19;101536.88;144994;595;5002;-78
2021/09/10 01:35:16;;;;;;;2.78;2.40;;;;;;;21.30;60.31;101537.75;144994;589;5002;-79
2021/09/10 01:37:43;;;;;;;2.53;2.20;;;;;;;21.32;60.30;101536.00;144994;626;5002;-78
2021/09/10 01:40:11;;;;;;;2.90;1.92;;;;;;;21.38;60.21;101536.88;144994;570;5002;-79
2021/09/10 01:42:38;;;;;;;4.40;2.58;;;;;;;21.43;59.81;101536.88;144994;602;5002;-80
2021/09/10 01:45:07;;;;;;;3.42;2.12;;;;;;;21.50;59.83;101535.13;144994;565;5002;-79
2021/09/10 01:47:35;;;;;;;4.20;1.90;;;;;;;21.48;59.97;101537.75;144994;619;5002;-80
2021/09/10 01:50:05;;;;;;;3.75;2.05;;;;;;;21.43;59.96;101541.25;144994;651;5002;-79
2021/09/10 01:52:31;;;;;;;3.62;2.15;;;;;;;21.45;59.91;101539.50;144994;569;5002;-81
2021/09/10 01:54:58;;;;;;;4.05;2.00;;;;;;;21.51;59.77;101536.88;144994;561;4566;-79
2021/09/10 01:57:24;;;;;;;3.78;2.20;;;;;;;21.55;59.63;101539.50;144994;750;4572;-78
2021/09/10 01:59:51;;;;;;;2.95;2.12;;;;;;;21.58;59.64;101529.81;144992;569;6002;-80
2021/09/10 02:02:18;;;;;;;2.37;2.10;;;;;;;21.61;59.43;101525.37;144992;611;6002;-80
2021/09/10 02:04:45;;;;;;;4.50;2.40;;;;;;;21.65;59.50;101527.16;144992;637;6002;-80
2021/09/10 02:07:11;;;;;;;4.43;2.20;;;;;;;21.60;59.50;101534.19;144992;598;6002;-79
2021/09/10 02:09:38;;;;;;;3.35;2.17;;;;;;;21.58;58.83;101530.69;144992;571;6002;-80
2021/09/10 02:12:05;;;;;;;3.03;2.20;;;;;;;21.44;59.65;101543.00;144992;604;6002;-79
2021/09/10 02:14:33;;;;;;;4.97;2.37;;;;;;;21.37;59.72;101534.22;144992;629;6002;-79
2021/09/10 02:17:00;;;;;;;3.10;2.22;;;;;;;21.33;59.68;101537.75;144991;600;6002;-80
2021/09/10 02:19:27;;;;;;;3.05;2.20;;;;;;;21.32;59.72;101539.50;144992;580;6002;-80
2021/09/10 02:21:53;;;;;;;4.03;2.58;;;;;;;21.31;59.93;101542.16;144992;674;6002;-79
2021/09/10 02:24:20;;;;;;;4.10;2.70;;;;;;;21.38;59.65;101541.28;144992;611;6002;-80
2021/09/10 02:26:46;;;;;;;4.60;2.50;;;;;;;21.37;59.46;101545.66;144992;620;6002;-78
2021/09/10 02:29:13;;;;;;;2.83;2.30;;;;;;;21.42;59.46;101537.72;144992;604;6002;-81
2021/09/10 02:31:40;;;;;;;3.40;2.47;;;;;;;21.43;59.59;101543.88;144992;570;6002;-78
2021/09/10 02:34:07;;;;;;;5.22;2.50;;;;;;;21.51;59.15;101544.81;144992;585;6002;-80
2021/09/10 02:36:37;;;;;;;5.62;2.58;;;;;;;21.50;58.83;101543.91;144992;571;6002;-78
2021/09/10 02:39:05;;;;;;;3.35;2.70;;;;;;;21.49;58.45;101543.91;144992;591;6002;-78
2021/09/10 02:41:32;;;;;;;5.07;2.50;;;;;;;21.43;58.99;101544.78;144992;577;6002;-79
2021/09/10 02:43:59;;;;;;;4.53;2.65;;;;;;;21.37;58.78;101542.16;144991;600;6002;-79
2021/09/10 02:46:25;;;;;;;3.25;2.35;;;;;;;21.35;59.19;101536.00;144992;599;6002;-78
2021/09/10 02:48:52;;;;;;;7.50;2.58;;;;;;;21.36;58.98;101533.34;144992;577;6002;-80
2021/09/10 02:51:19;;;;;;;5.62;2.80;;;;;;;21.37;58.97;101536.88;144992;574;6002;-79
2021/09/10 02:53:45;;;;;;;4.68;2.37;;;;;;;21.37;59.12;101534.22;144992;627;6002;-79
2021/09/10 02:56:12;;;;;;;4.97;2.50;;;;;;;21.37;58.80;101527.19;144992;643;6002;-78
2021/09/10 02:58:38;;;;;;;6.90;2.78;;;;;;;21.36;58.81;101528.06;144992;565;6011;-78
2021/09/10 03:01:05;;;;;;;3.03;2.40;;;;;;;21.36;58.84;101527.19;144992;596;6002;-78
2021/09/10 03:03:31;;;;;;;3.75;2.30;;;;;;;21.37;58.96;101528.94;144992;593;6002;-78
2021/09/10 03:05:57;;;;;;;5.03;2.25;;;;;;;21.34;58.83;101528.94;144992;590;6002;-77
2021/09/10 03:08:24;;;;;;;3.60;2.40;;;;;;;21.36;58.88;101532.47;144992;632;6002;-79
2021/09/10 03:10:50;;;;;;;5.60;2.20;;;;;;;21.36;58.88;101530.72;144992;614;6002;-78
2021/09/10 03:13:18;;;;;;;3.47;2.28;;;;;;;21.35;58.87;101530.72;144992;593;6002;-79
2021/09/10 03:15:45;;;;;;;4.10;2.40;;;;;;;21.32;58.86;101531.59;144992;579;6003;-79
2021/09/10 03:18:12;;;;;;;3.12;2.17;;;;;;;21.25;59.05;101536.88;144992;574;6002;-79
2021/09/10 03:20:38;;;;;;;2.85;2.30;;;;;;;21.22;59.00;101534.25;144992;563;6002;-78
2021/09/10 03:23:05;;;;;;;4.37;2.30;;;;;;;21.25;59.05;101537.75;144992;574;6003;-79
2021/09/10 03:25:32;;;;;;;3.83;2.37;;;;;;;21.27;59.22;101546.56;144992;587;6002;-80
2021/09/10 03:27:58;;;;;;;4.20;2.37;;;;;;;21.24;59.23;101537.75;144992;563;6002;-78
2021/09/10 03:30:24;;;;;;;2.97;2.37;;;;;;;21.16;59.44;101537.78;144992;565;6002;-79
2021/09/10 03:32:51;;;;;;;2.90;2.55;;;;;;;21.09;59.53;101536.03;144992;575;6002;-79
2021/09/10 03:35:17;;;;;;;3.47;2.53;;;;;;;21.01;59.64;101539.56;144992;563;6002;-77
2021/09/10 03:37:44;;;;;;;5.43;2.58;;;;;;;20.95;59.87;101544.84;144992;566;6002;-79
2021/09/10 03:40:11;;;;;;;4.47;2.60;;;;;;;20.94;59.90;101548.34;144992;569;6002;-78
2021/09/10 03:42:37;;;;;;;5.35;2.37;;;;;;;20.91;60.11;101540.44;144992;604;6002;-79
2021/09/10 03:45:05;;;;;;;4.30;2.90;;;;;;;20.89;60.10;101544.84;144992;588;6002;-80
2021/09/10 03:47:31;;;;;;;4.70;2.45;;;;;;;20.76;60.52;101550.97;144992;589;6002;-79
2021/09/10 03:49:58;;;;;;;4.00;2.37;;;;;;;20.74;60.46;101550.97;144992;584;6002;-80
2021/09/10 03:52:24;;;;;;;4.15;2.65;;;;;;;20.71;60.49;101548.34;144992;639;6002;-80
2021/09/10 03:54:51;;;;;;;4.82;2.67;;;;;;;20.75;60.46;101552.72;144992;585;6002;-80
2021/09/10 03:57:17;;;;;;;6.00;2.80;;;;;;;20.77;60.47;101550.09;144992;587;6002;-79
2021/09/10 03:59:44;;;;;;;5.53;2.58;;;;;;;20.78;60.49;101554.50;144992;579;6002;-80
2021/09/10 04:02:10;;;;;;;5.47;2.95;;;;;;;20.83;60.84;101555.37;144992;575;6002;-80
2021/09/10 04:04:37;;;;;;;5.05;2.67;;;;;;;20.86;60.34;101563.31;144992;606;6002;-79
2021/09/10 04:07:03;;;;;;;4.68;2.95;;;;;;;20.78;60.63;101562.44;144992;614;6002;-79
2021/09/10 04:09:30;;;;;;;4.78;2.80;;;;;;;20.78;60.95;101555.37;144992;585;6002;-79
2021/09/10 04:11:57;;;;;;;5.75;2.90;;;;;;;20.79;60.79;101559.78;144992;602;6002;-81
2021/09/10 04:14:23;;;;;;;6.85;3.12;;;;;;;20.74;61.17;101558.87;144992;609;6002;-79
2021/09/10 04:16:49;;;;;;;4.47;3.05;;;;;;;20.76;61.02;101561.53;144992;566;6002;-80
2021/09/10 04:19:16;;;;;;;10.10;3.53;;;;;;;20.68;61.23;101568.56;144992;628;6002;-80
2021/09/10 04:21:42;;;;;;;5.68;3.17;;;;;;;20.63;61.34;101566.78;144992;573;6002;-79
2021/09/10 04:24:09;;;;;;;4.00;3.05;;;;;;;20.54;61.35;101563.25;144992;601;6002;-80
2021/09/10 04:26:36;;;;;;;4.37;2.60;;;;;;;20.57;61.30;101564.12;144992;566;6002;-80
2021/09/10 04:29:02;;;;;;;4.70;2.97;;;;;;;20.55;61.35;101563.22;144992;585;6002;-80
2021/09/10 04:31:28;;;;;;;3.45;2.60;;;;;;;20.53;61.44;101562.34;144992;573;6002;-80
2021/09/10 04:33:55;;;;;;;6.18;2.87;;;;;;;20.53;61.19;101569.37;144992;578;6002;-80
2021/09/10 04:36:22;;;;;;;3.25;2.50;;;;;;;20.46;61.39;101560.59;144992;579;6002;-79
2021/09/10 04:38:48;;;;;;;4.78;2.33;;;;;;;20.51;61.15;101561.47;144992;588;6002;-80
2021/09/10 04:41:15;;;;;;;3.97;2.70;;;;;;;20.50;61.15;101566.75;144992;566;6002;-78
2021/09/10 04:43:41;;;;;;;5.47;2.50;;;;;;;20.41;61.24;101567.56;144992;589;6002;-79
2021/09/10 04:46:07;;;;;;;8.70;3.28;;;;;;;20.38;61.49;101570.25;144992;591;6002;-80
2021/09/10 04:48:34;;;;;;;5.25;3.17;;;;;;;20.31;61.57;101577.22;144992;582;6002;-80
2021/09/10 04:51:00;;;;;;;5.90;2.60;;;;;;;20.26;61.69;101571.94;144992;636;6002;-81
2021/09/10 04:53:27;;;;;;;8.88;2.65;;;;;;;20.33;61.69;101566.69;144992;606;6002;-80
2021/09/10 04:55:53;;;;;;;2.80;2.28;;;;;;;20.36;61.50;101577.25;144992;602;6002;-81
2021/09/10 04:58:21;;;;;;;6.35;3.55;;;;;;;20.44;61.28;101576.41;144992;573;6002;-81
2021/09/10 05:00:47;;;;;;;4.05;2.80;;;;;;;20.56;60.98;101580.81;144992;590;6002;-80
2021/09/10 05:03:14;;;;;;;3.30;2.70;;;;;;;20.66;60.92;101565.91;144992;569;6002;-81
2021/09/10 05:05:40;;;;;;;5.40;3.10;;;;;;;20.74;60.55;101568.56;144992;621;6002;-80
2021/09/10 05:08:06;;;;;;;3.67;2.70;;;;;;;20.82;60.61;101574.72;144992;592;6002;-80
2021/09/10 05:10:33;;;;;;;7.55;2.37;;;;;;;20.72;60.52;101576.47;144992;582;6002;-81
2021/09/10 05:12:59;;;;;;;5.70;3.47;;;;;;;20.71;60.35;101565.91;144992;570;6002;-80
2021/09/10 05:15:26;;;;;;;4.57;3.17;;;;;;;20.65;60.61;101566.81;144992;583;6002;-80
2021/09/10 05:17:52;;;;;;;3.62;2.97;;;;;;;20.60;60.56;101572.03;144991;616;6002;-79
2021/09/10 05:20:19;;;;;;;5.55;3.03;;;;;;;20.53;60.88;101574.66;144992;589;6002;-80
2021/09/10 05:22:46;;;;;;;6.15;3.08;;;;;;;20.52;61.01;101567.59;144992;569;6002;-80
2021/09/10 05:25:12;;;;;;;5.75;3.50;;;;;;;20.55;61.10;101573.75;144992;564;6002;-79
2021/09/10 05:27:39;;;;;;;3.78;3.03;;;;;;;20.69;60.91;101572.97;144992;587;6002;-79
2021/09/10 05:30:06;;;;;;;8.52;3.28;;;;;;;20.86;60.57;101583.53;144992;667;6002;-79
2021/09/10 05:32:33;;;;;;;7.07;3.90;;;;;;;21.00;60.30;101584.44;144992;581;6002;-78
2021/09/10 05:34:59;;;;;;;6.50;4.00;;;;;;;21.15;59.94;101580.91;144992;588;6002;-79
2021/09/10 05:37:26;;;;;;;6.05;4.87;;;;;;;21.29;59.73;101578.25;144992;618;6003;-80
2021/09/10 05:39:52;;;;;;;8.60;4.10;;;;;;;21.40;59.76;101580.91;144992;585;6002;-80
2021/09/10 05:42:18;;;;;;;5.72;3.72;;;;;;;21.51;59.26;101574.72;144992;579;6002;-80
2021/09/10 05:44:45;;;;;;;5.93;4.20;;;;;;;21.62;59.29;101582.63;144992;570;6002;-78
2021/09/10 05:47:11;;;;;;;7.37;3.65;;;;;;;21.66;59.17;101576.44;144992;584;6002;-79
2021/09/10 05:49:38;;;;;;;8.30;4.43;;;;;;;21.74;59.12;101576.44;144992;582;6002;-80
2021/09/10 05:52:09;;;;;;;6.12;3.87;;;;;;;21.82;59.02;101569.34;144992;663;6002;-80
2021/09/10 05:54:37;;;;;;;8.02;5.07;;;;;;;21.92;58.83;101563.16;144992;614;6002;-80
2021/09/10 05:57:04;;;;;;;12.30;5.47;;;;;;;22.01;58.63;101570.16;144992;624;6002;-80
2021/09/10 05:59:30;;;;;;;11.55;7.32;;;;;;;22.08;58.25;101571.91;144992;570;6002;-80
2021/09/10 06:01:57;;;;;;;8.70;6.10;;;;;;;22.16;58.12;101569.22;144992;585;6002;-79
2021/09/10 06:04:23;;;;;;;11.95;7.47;;;;;;;22.23;58.05;101563.00;144992;574;6002;-80
2021/09/10 06:06:50;;;;;;;16.50;8.60;;;;;;;22.31;57.91;101570.06;144992;569;6002;-79
2021/09/10 06:09:17;;;;;;;12.93;8.98;;;;;;;22.34;58.05;101576.22;144992;637;6002;-80
2021/09/10 06:11:43;;;;;;;14.55;10.73;;;;;;;22.39;57.88;101577.06;144992;591;6002;-80
2021/09/10 06:14:10;;;;;;;11.35;8.80;;;;;;;22.40;57.83;101572.69;144991;605;6002;-79
2021/09/10 06:16:36;;;;;;;13.35;9.77;;;;;;;22.41;57.72;101571.75;144992;579;6002;-80
2021/09/10 06:19:03;;;;;;;14.25;11.52;;;;;;;22.50;57.72;101573.50;144991;587;6002;-80
2021/09/10 06:21:29;;;;;;;18.58;12.95;;;;;;;22.60;57.53;101575.19;144992;605;6002;-79
2021/09/10 06:23:56;;;;;;;14.95;11.38;;;;;;;22.73;57.63;101575.97;144992;628;6002;-81
2021/09/10 06:26:25;;;;;;;23.33;17.50;;;;;;;22.83;57.04;101578.53;144992;571;6002;-81
2021/09/10 06:28:51;;;;;;;15.85;11.20;;;;;;;22.87;57.38;101579.37;144992;576;6002;-81
2021/09/10 06:31:18;;;;;;;20.15;15.07;;;;;;;22.94;57.34;101580.22;144992;566;6002;-80
2021/09/10 06:33:44;;;;;;;16.48;12.82;;;;;;;23.02;57.20;101581.06;144992;569;6002;-80
2021/09/10 06:36:11;;;;;;;13.62;10.38;;;;;;;23.13;57.27;101578.31;144992;572;6002;-81
2021/09/10 06:38:37;;;;;;;14.45;11.27;;;;;;;23.12;56.08;101582.75;144992;619;6002;-79
2021/09/10 06:41:04;;;;;;;13.73;9.98;;;;;;;23.10;56.84;101576.59;144992;563;6002;-79
2021/09/10 06:43:30;;;;;;;10.30;5.62;;;;;;;23.15;56.98;101577.44;144992;580;6002;-80
2021/09/10 06:45:56;;;;;;;11.35;7.10;;;;;;;23.23;56.96;101569.41;144992;641;6002;-79
2021/09/10 06:48:23;;;;;;;11.07;8.15;;;;;;;23.34;56.87;101564.03;144992;610;6002;-79
2021/09/10 06:50:49;;;;;;;10.02;7.10;;;;;;;23.47;56.75;101559.47;144992;626;6002;-79
2021/09/10 06:53:16;;;;;;;10.30;6.50;;;;;;;23.60;56.79;101566.38;144992;643;6002;-78
2021/09/10 06:55:42;;;;;;;12.00;6.00;;;;;;;23.73;56.08;101567.12;144992;598;6002;-79
2021/09/10 06:58:09;;;;;;;9.98;6.00;;;;;;;23.84;56.41;101565.25;144992;589;6002;-79
2021/09/10 07:00:35;;;;;;;7.75;6.30;;;;;;;23.96;56.27;101574.84;144992;621;6002;-80
2021/09/10 07:03:02;;;;;;;5.85;4.97;;;;;;;24.07;56.08;101575.59;144992;571;6002;-79
2021/09/10 07:05:28;;;;;;;8.63;6.20;;;;;;;24.16;55.89;101571.94;144992;592;6002;-80
2021/09/10 07:07:55;;;;;;;11.20;6.50;;;;;;;24.24;55.76;101579.78;144992;602;6002;-77
2021/09/10 07:10:23;;;;;;;10.98;6.62;;;;;;;24.30;55.63;101579.72;144992;563;6002;-80
2021/09/10 07:12:53;;;;;;;12.00;7.28;;;;;;;24.38;54.83;101567.19;144992;609;6002;-80
2021/09/10 07:15:19;;;;;;;13.62;8.73;;;;;;;24.44;55.16;101567.12;144992;624;6002;-79
2021/09/10 07:17:46;;;;;;;9.82;6.65;;;;;;;24.41;54.75;101568.94;144992;640;6002;-80
2021/09/10 07:20:13;;;;;;;12.85;7.18;;;;;;;24.41;55.08;101571.59;144991;609;6002;-78
2021/09/10 07:22:39;;;;;;;11.25;6.72;;;;;;;24.50;55.62;101565.28;144992;584;6002;-79
2021/09/10 07:25:06;;;;;;;11.30;6.55;;;;;;;24.62;55.31;101574.00;144992;579;6002;-79
2021/09/10 07:27:33;;;;;;;8.65;5.25;;;;;;;24.76;53.05;101571.09;144992;603;6002;-80
2021/09/10 07:29:59;;;;;;;11.57;6.28;;;;;;;24.92;54.87;101576.16;144992;593;6002;-80
2021/09/10 07:32:26;;;;;;;8.40;5.50;;;;;;;24.98;51.81;101571.63;144991;578;6002;-79
2021/09/10 07:34:52;;;;;;;9.50;6.95;;;;;;;25.06;54.90;101568.84;144992;580;6002;-80
2021/09/10 07:37:27;;;;;;;18.00;9.68;;;;;;;25.20;54.50;101563.28;144992;564;6002;-79
2021/09/10 07:39:56;;;;;;;;;;;;;;;25.18;49.81;101570.41;144997;913;6002;-80
2021/09/10 07:42:23;;;;;;;8.77;6.47;;;;;;;25.22;54.34;101577.41;144996;594;6002;-78
2021/09/10 07:44:50;;;;;;;11.43;6.60;;;;;;;25.08;45.69;101575.00;144992;840;6002;-81
2021/09/10 07:47:18;;;;;;;12.27;8.45;;;;;;;24.93;46.41;101568.19;144992;579;6002;-79
2021/09/10 07:49:45;;;;;;;8.90;6.37;;;;;;;25.04;53.72;101581.28;144992;682;6002;-78
2021/09/10 07:52:12;;;;;;;6.95;5.00;;;;;;;25.24;53.33;101585.38;144992;788;6002;-79
2021/09/10 07:54:38;;;;;;;4.07;3.00;;;;;;;25.38;48.70;101572.75;144992;579;6002;-79
2021/09/10 07:57:05;;;;;;;4.03;2.80;;;;;;;25.48;51.08;101578.75;144992;569;6002;-80
2021/09/10 07:59:31;;;;;;;4.72;3.55;;;;;;;25.62;53.21;101582.03;144992;914;6002;-79
2021/09/10 08:01:58;;;;;;;4.32;2.28;;;;;;;25.67;51.77;101588.12;144992;664;6002;-80
2021/09/10 08:04:25;;;;;;;5.00;3.10;;;;;;;25.78;49.58;101573.75;144991;569;6002;-79
2021/09/10 08:06:52;;;;;;;4.93;2.47;;;;;;;25.83;46.56;101571.88;144992;616;6002;-79
2021/09/10 08:09:18;;;;;;;2.60;2.40;;;;;;;25.86;50.72;101582.44;144992;566;6002;-80
2021/09/10 08:11:45;;;;;;;4.07;2.40;;;;;;;25.98;51.39;101586.69;144992;913;6002;-81
2021/09/10 08:14:11;;;;;;;6.87;2.65;;;;;;;26.15;50.72;101587.22;144992;913;6003;-80
2021/09/10 08:16:38;;;;;;;3.95;2.22;;;;;;;26.26;50.63;101589.63;144993;913;6002;-81
2021/09/10 08:19:05;;;;;;;3.47;2.70;;;;;;;26.33;51.59;101599.22;144993;913;6002;-81
2021/09/10 08:21:31;;;;;;;5.03;3.60;;;;;;;26.42;51.71;101593.72;144993;606;6002;-80
2021/09/10 08:23:58;;;;;;;3.12;2.55;;;;;;;26.55;50.52;101588.06;144993;564;6002;-79
2021/09/10 08:26:24;;;;;;;4.45;2.37;;;;;;;26.68;49.36;101592.25;144993;587;6002;-80
2021/09/10 08:28:51;;;;;;;3.58;2.30;;;;;;;26.72;47.56;101593.91;144993;590;6002;-80
2021/09/10 08:31:17;;;;;;;2.50;1.87;;;;;;;26.75;46.64;101591.19;144993;914;6002;-80
2021/09/10 08:33:44;;;;;;;2.47;2.00;;;;;;;26.83;50.52;101593.66;144993;583;6002;-81
2021/09/10 08:36:10;;;;;;;3.30;2.20;;;;;;;26.82;45.21;101588.38;144992;657;6003;-79
2021/09/10 08:38:37;;;;;;;3.37;2.33;;;;;;;26.84;49.35;101589.22;144993;567;6002;-81
2021/09/10 08:41:04;;;;;;;2.90;2.20;;;;;;;26.94;50.76;101594.28;144992;563;6002;-80
2021/09/10 08:43:31;;;;;;;28.87;13.93;;;;;;;26.99;50.04;101596.81;144993;592;6002;-80
2021/09/10 08:45:59;;;;;;;7.35;4.12;;;;;;;27.03;45.85;101587.84;144992;707;6002;-80
2021/09/10 08:48:27;;;;;;;2.75;2.28;;;;;;;27.12;50.63;101600.94;144992;574;6002;-80
2021/09/10 08:50:55;;;;;;;5.97;2.40;;;;;;;27.19;49.89;101592.75;144992;646;6002;-80
2021/09/10 08:53:23;;;;;;;5.28;3.00;;;;;;;27.28;47.01;101593.44;144992;575;6002;-79
2021/09/10 08:55:50;;;;;;;3.83;2.10;;;;;;;27.37;46.24;101592.31;144992;578;6002;-78
2021/09/10 08:58:16;;;;;;;4.72;2.47;;;;;;;27.43;48.58;101593.97;144992;593;6002;-81
2021/09/10 09:00:42;;;;;;;3.47;2.70;;;;;;;27.50;48.29;101593.75;144993;668;6002;-80
2021/09/10 09:03:10;;;;;;;3.05;1.85;;;;;;;27.51;49.69;101589.31;144993;563;6002;-79
2021/09/10 09:05:38;;;;;;;3.62;2.50;;;;;;;27.53;45.90;101597.25;144993;655;6002;-81
2021/09/10 09:08:18;;;;;;;2.80;2.33;;;;;;;27.50;45.31;101591.09;144993;585;6002;-79
2021/09/10 09:11:04;;;;;;;5.57;3.15;;;;;;;27.26;47.03;101583.72;144993;596;6002;-82
2021/09/10 09:13:45;;;;;;;4.68;3.33;;;;;;;27.03;41.78;101585.19;144993;659;6000;-81
2021/09/10 09:16:28;;;;;;;3.35;2.67;;;;;;;27.11;47.67;101583.19;144993;617;6002;-81
2021/09/10 09:18:57;;;;;;;6.65;3.20;;;;;;;27.00;43.36;101573.75;144993;590;6002;-81
2021/09/10 09:21:32;;;;;;;3.95;2.40;;;;;;;27.09;46.01;101576.16;144993;643;6002;-80
2021/09/10 09:24:22;;;;;;;5.03;2.62;;;;;;;27.21;44.48;101569.63;144993;696;6002;-80
2021/09/10 09:26:51;;;;;;;4.53;2.80;;;;;;;27.35;46.80;101580.84;144993;604;6000;-81
2021/09/10 09:29:20;;;;;;;4.85;2.53;;;;;;;27.16;40.44;101577.75;144993;573;6002;-81
2021/09/10 09:32:05;;;;;;;4.45;2.53;;;;;;;27.17;46.50;101579.50;144993;592;6002;-80
2021/09/10 09:34:47;;;;;;;4.50;3.92;;;;;;;27.05;40.42;101570.03;144993;569;6002;-81
2021/09/10 09:37:18;;;;;;;4.10;3.50;;;;;;;26.99;43.04;101564.00;144993;577;6002;-78
2021/09/10 09:39:56;;;;;;;3.53;2.95;;;;;;;27.04;43.50;101559.41;144993;603;6002;-79
2021/09/10 09:42:36;;;;;;;3.33;2.58;;;;;;;26.96;44.49;101565.81;144993;588;6002;-81
2021/09/10 09:45:19;;;;;;;3.97;2.00;;;;;;;27.04;44.46;101562.94;144993;604;6002;-80
2021/09/10 09:47:46;;;;;;;3.40;2.40;;;;;;;26.88;39.63;101561.59;144993;650;6002;-80
2021/09/10 09:50:17;;;;;;;2.72;2.28;;;;;;;26.77;41.19;101559.19;144993;576;6002;-81
2021/09/10 09:52:48;;;;;;;3.75;2.28;;;;;;;26.79;41.87;101555.59;144993;565;6002;-80
2021/09/10 09:55:14;;;;;;;2.45;1.95;;;;;;;26.94;42.31;101558.78;144994;572;5002;-81
2021/09/10 09:57:44;;;;;;;8.35;2.42;;;;;;;26.79;42.47;101555.59;144994;627;5002;-80
2021/09/10 10:00:11;;;;;;;7.15;2.17;;;;;;;26.83;42.70;101553.72;144994;571;5002;-80
2021/09/10 10:02:38;;;;;;;2.37;2.03;;;;;;;26.62;42.75;101547.09;144994;590;5002;-81
2021/09/10 10:05:07;;;;;;;3.22;2.37;;;;;;;26.52;42.77;101550.88;144994;759;5002;-80
2021/09/10 10:08:05;;;;;;;3.67;2.50;;;;;;;26.56;43.17;101555.22;144994;583;5002;-81
2021/09/10 10:10:40;;;;;;;4.28;2.40;;;;;;;26.44;43.97;101548.41;144994;710;5004;-80
2021/09/10 10:13:08;;;;;;;2.78;2.12;;;;;;;26.30;44.38;101554.06;144994;588;5004;-80
2021/09/10 10:15:43;;;;;;;2.92;2.12;;;;;;;26.33;44.53;101548.66;144994;571;5004;-79
2021/09/10 10:18:10;;;;;;;4.62;2.20;;;;;;;26.18;44.80;101549.88;144994;613;5004;-81
2021/09/10 10:20:50;;;;;;;3.45;2.30;;;;;;;26.27;44.19;101548.78;144994;584;5004;-81
2021/09/10 10:24:03;;;;;;;3.42;2.20;;;;;;;26.32;44.21;101548.69;144994;590;5004;-80
2021/09/10 10:26:36;;;;;;;2.62;2.17;;;;;;;26.13;44.87;101556.22;144994;646;5004;-81
2021/09/10 10:29:06;;;;;;;2.90;2.20;;;;;;;25.99;44.88;101556.50;144994;615;5004;-80
2021/09/10 10:32:04;;;;;;;3.42;2.20;;;;;;;26.14;44.50;101557.97;144994;573;5004;-79
2021/09/10 10:34:32;;;;;;;5.43;2.70;;;;;;;26.16;44.27;101546.38;144994;639;5002;-81
2021/09/10 10:36:59;;;;;;;5.47;2.20;;;;;;;26.11;44.46;101547.41;144994;569;5002;-81
2021/09/10 10:39:29;;;;;;;2.87;2.00;;;;;;;25.92;44.41;101542.44;144994;587;5002;-81
2021/09/10 10:42:07;;;;;;;3.37;2.08;;;;;;;25.95;44.28;101544.16;144994;580;5002;-81
2021/09/10 10:44:53;;;;;;;4.15;2.30;;;;;;;25.97;44.33;101540.56;144994;577;5002;-80
2021/09/10 10:47:32;;;;;;;2.75;1.90;;;;;;;25.95;44.14;101536.19;144994;909;5004;-80
2021/09/10 10:50:26;;;;;;;6.15;2.40;;;;;;;25.94;44.41;101537.94;144994;599;5005;-80
2021/09/10 10:53:12;;;;;;;4.28;2.28;;;;;;;25.99;44.37;101541.41;144994;586;5002;-82
2021/09/10 10:55:42;;;;;;;7.00;4.90;;;;;;;25.88;45.10;101532.75;144994;843;5002;-77
2021/09/10 10:58:26;;;;;;;6.47;4.43;;;;;;;25.81;45.10;101533.81;144994;714;5002;-81
2021/09/10 11:00:59;;;;;;;5.47;2.55;;;;;;;26.08;44.75;101534.16;144994;599;5002;-80
2021/09/10 11:03:35;;;;;;;4.95;2.35;;;;;;;26.11;44.26;101528.78;144994;606;5002;-81
2021/09/10 11:06:26;;;;;;;3.97;2.67;;;;;;;26.00;44.30;101529.88;144994;772;5004;-82
2021/09/10 11:08:52;;;;;;;3.28;2.30;;;;;;;25.99;44.21;101516.59;144994;569;5002;-81
2021/09/10 11:11:19;;;;;;;3.83;2.47;;;;;;;25.95;44.38;101526.41;144994;592;5002;-82
2021/09/10 11:13:45;;;;;;;2.50;2.10;;;;;;;25.92;44.59;101531.78;144994;635;5002;-80
2021/09/10 11:16:26;;;;;;;5.12;2.85;;;;;;;25.95;44.60;101523.75;144994;593;5002;-81
2021/09/10 11:18:53;;;;;;;3.60;2.62;;;;;;;25.98;44.71;101517.53;144994;571;5002;-81
2021/09/10 11:21:27;;;;;;;6.15;4.62;;;;;;;25.88;44.98;101522.13;144994;712;5002;-80
2021/09/10 11:23:54;;;;;;;7.35;4.80;;;;;;;25.95;44.57;101505.13;144994;569;5002;-81
2021/09/10 11:26:20;;;;;;;3.53;2.40;;;;;;;26.02;44.88;101501.44;144994;603;5002;-81
2021/09/10 11:28:46;;;;;;;4.57;2.50;;;;;;;26.03;44.59;101510.31;144994;586;5002;-81
2021/09/10 11:31:13;;;;;;;6.10;3.00;;;;;;;25.73;45.36;101498.53;144994;706;5002;-82
2021/09/10 11:33:51;;;;;;;3.10;2.40;;;;;;;25.78;45.39;101497.50;144994;602;5002;-81
2021/09/10 11:36:25;;;;;;;3.15;2.08;;;;;;;25.89;44.65;101495.50;144994;565;5002;-82
2021/09/10 11:39:00;;;;;;;3.47;2.37;;;;;;;25.87;44.54;101496.44;144994;714;5002;-80